Time;durP1;ratioP1;P1;durP2;ratioP2;P2;SDS_P1;SDS_P2;PMS_P1;PMS_P2;Temp;Humidity;BMP_temperature;BMP_pressure;BME280_temperature;BME280_humidity;BME280_pressure;Samples;Min_cycle;Max_cycle;Signal;HPM_P1;HPM_P2
2023/02/23 00:01:20;;;;;;;;;20.00;10.75;;;;;10.50;100.00;101099.84;5037937;28;45518;-78
2023/02/23 00:03:48;;;;;;;;;21.25;14.50;;;;;10.46;100.00;101112.06;5037064;28;47375;-78
2023/02/23 00:06:14;;;;;;;;;22.00;14.25;;;;;10.39;100.00;101108.72;5038277;28;45375;-77
2023/02/23 00:08:39;;;;;;;;;19.50;18.00;;;;;10.34;100.00;101109.72;5038552;28;45308;-77
2023/02/23 00:11:07;;;;;;;;;12.25;10.25;;;;;10.32;100.00;101109.75;5038313;28;45352;-77
2023/02/23 00:13:36;;;;;;;;;23.75;14.25;;;;;10.29;100.00;101099.41;5037466;28;46680;-78
2023/02/23 00:16:11;;;;;;;;;16.50;12.50;;;;;10.26;100.00;101104.66;5038260;28;45436;-78
2023/02/23 00:18:43;;;;;;;;;17.75;14.75;;;;;10.21;100.00;101096.94;5038094;28;45370;-78
2023/02/23 00:21:14;;;;;;;;;22.00;15.50;;;;;10.21;100.00;101096.09;5038014;28;45471;-78
2023/02/23 00:23:50;;;;;;;;;17.75;11.75;;;;;10.24;100.00;101098.63;5036874;28;45412;-78
2023/02/23 00:26:19;;;;;;;;;11.50;9.25;;;;;10.25;100.00;101096.00;5036652;28;45405;-78
2023/02/23 00:28:45;;;;;;;;;25.25;19.00;;;;;10.26;100.00;101099.44;5037292;28;45417;-78
2023/02/23 00:31:10;;;;;;;;;16.50;14.00;;;;;10.25;100.00;101097.72;5036793;28;45649;-78
2023/02/23 00:33:36;;;;;;;;;15.50;12.75;;;;;10.15;100.00;101099.69;5037854;28;45563;-78
2023/02/23 00:36:10;;;;;;;;;18.00;15.00;;;;;10.13;100.00;101098.84;5037461;28;46146;-77
2023/02/23 00:38:36;;;;;;;;;18.00;10.00;;;;;10.11;100.00;101100.63;5036403;28;45424;-78
2023/02/23 00:41:10;;;;;;;;;23.75;16.25;;;;;10.08;100.00;101100.69;5036696;28;45391;-78
2023/02/23 00:43:37;;;;;;;;;23.00;14.75;;;;;10.07;100.00;101099.00;5038199;28;46400;-79
2023/02/23 00:46:06;;;;;;;;;28.00;14.50;;;;;10.05;100.00;101101.63;5037088;28;45420;-78
2023/02/23 00:48:33;;;;;;;;;25.50;15.50;;;;;10.02;100.00;101104.28;5036901;28;45315;-78
2023/02/23 00:51:02;;;;;;;;;24.75;16.50;;;;;9.97;100.00;101103.50;5037170;28;45469;-78
2023/02/23 00:53:28;;;;;;;;;25.75;18.00;;;;;9.99;100.00;101096.56;5036865;28;46538;-78
2023/02/23 00:55:55;;;;;;;;;20.50;15.00;;;;;10.02;100.00;101101.69;5037872;28;45357;-78
2023/02/23 00:58:21;;;;;;;;;15.50;14.50;;;;;10.02;100.00;101098.22;5070194;28;45305;-78
2023/02/23 01:00:46;;;;;;;;;20.50;14.00;;;;;10.04;100.00;101097.28;5038433;28;45297;-78
2023/02/23 01:03:11;;;;;;;;;24.50;14.00;;;;;10.05;100.00;101106.81;5037254;28;45979;-77
2023/02/23 01:05:37;;;;;;;;;18.50;14.50;;;;;10.02;100.00;101104.28;5037400;28;45289;-78
2023/02/23 01:08:03;;;;;;;;;27.50;15.25;;;;;9.98;100.00;101104.38;5035627;28;45412;-78
2023/02/23 01:10:28;;;;;;;;;20.25;13.75;;;;;9.92;100.00;101110.56;5037797;28;45339;-78
2023/02/23 01:12:54;;;;;;;;;23.75;16.25;;;;;9.89;100.00;101108.88;5035604;28;45409;-77
2023/02/23 01:15:20;;;;;;;;;18.25;9.00;;;;;9.89;100.00;101106.28;5036236;28;66973;-78
2023/02/23 01:17:46;;;;;;;;;22.50;18.25;;;;;9.87;100.00;101104.59;5037366;28;45348;-78
2023/02/23 01:20:17;;;;;;;;;21.75;12.75;;;;;9.85;100.00;101099.41;5036518;28;45487;-78
2023/02/23 01:22:45;;;;;;;;;25.75;18.00;;;;;9.92;100.00;101105.38;5036876;28;45665;-79
2023/02/23 01:25:11;;;;;;;;;21.50;15.25;;;;;9.92;100.00;101096.69;5037028;28;45816;-78
2023/02/23 01:27:37;;;;;;;;;27.00;18.00;;;;;9.93;100.00;101096.66;5036974;28;45427;-78
2023/02/23 01:30:03;;;;;;;;;13.50;9.50;;;;;9.98;100.00;101099.19;5035954;28;45555;-78
2023/02/23 01:32:29;;;;;;;;;17.50;13.50;;;;;9.97;100.00;101102.66;5036952;28;46852;-78
2023/02/23 01:34:54;;;;;;;;;14.25;11.00;;;;;9.99;100.00;101103.47;5035667;28;45720;-78
2023/02/23 01:37:19;;;;;;;;;24.00;11.75;;;;;10.00;100.00;101108.66;5036205;28;64133;-78
2023/02/23 01:39:45;;;;;;;;;18.50;13.75;;;;;9.99;100.00;101103.47;5036872;28;46125;-78
2023/02/23 01:42:13;;;;;;;;;22.25;13.75;;;;;10.01;100.00;101105.19;5035902;28;68550;-78
2023/02/23 01:44:38;;;;;;;;;18.50;10.00;;;;;9.99;100.00;101112.16;5034749;28;70437;-78
2023/02/23 01:47:04;;;;;;;;;19.00;11.00;;;;;9.97;100.00;101103.50;5036882;28;45356;-78
2023/02/23 01:49:33;;;;;;;;;19.50;13.75;;;;;9.98;100.00;101097.44;5035509;28;45430;-78
2023/02/23 01:52:10;;;;;;;;;16.00;11.00;;;;;10.02;100.00;101101.69;5035332;28;47263;-78
2023/02/23 01:54:38;;;;;;;;;18.00;11.00;;;;;10.03;100.00;101099.97;5035836;28;45235;-78
2023/02/23 01:57:05;;;;;;;;;18.25;11.75;;;;;10.03;100.00;101105.16;5035118;28;45351;-78
2023/02/23 01:59:38;;;;;;;;;24.00;14.25;;;;;10.04;100.00;101099.03;5035124;28;45463;-78
2023/02/23 02:02:06;;;;;;;;;10.50;10.50;;;;;9.99;100.00;101103.47;5034833;28;46610;-78
2023/02/23 02:04:43;;;;;;;;;14.25;10.00;;;;;9.89;100.00;101095.88;5035778;28;45357;-78
2023/02/23 02:07:13;;;;;;;;;13.75;11.00;;;;;9.77;100.00;101100.47;5035373;28;45453;-78
2023/02/23 02:09:41;;;;;;;;;17.00;10.00;;;;;9.72;100.00;101099.72;5035647;28;45547;-78
2023/02/23 02:12:11;;;;;;;;;12.50;10.00;;;;;9.64;100.00;101102.47;5035064;28;45430;-78
2023/02/23 02:14:36;;;;;;;;;19.25;9.00;;;;;9.61;100.00;101103.38;5035139;28;46049;-78
2023/02/23 02:17:33;;;;;;;;;12.00;7.50;;;;;9.58;100.00;101102.56;5035039;28;45341;-78
2023/02/23 02:20:13;;;;;;;;;9.75;9.25;;;;;9.55;100.00;101097.44;5035295;28;45345;-78
2023/02/23 02:23:11;;;;;;;;;10.00;9.75;;;;;9.51;100.00;101094.03;5035264;28;46622;-78
2023/02/23 02:25:51;;;;;;;;;9.00;7.50;;;;;9.45;100.00;101086.34;5030554;28;45777;-78
2023/02/23 02:28:38;;;;;;;;;14.00;10.25;;;;;9.45;100.00;101094.13;5034919;28;45462;-78
2023/02/23 02:31:09;;;;;;;;;12.25;10.50;;;;;9.44;100.00;101097.63;5036671;28;45365;-78
2023/02/23 02:33:59;;;;;;;;;17.25;10.50;;;;;9.43;100.00;101103.69;5035868;28;46540;-78
2023/02/23 02:36:47;;;;;;;;;10.50;8.50;;;;;9.41;100.00;101102.88;5036396;28;45909;-78
2023/02/23 02:39:22;;;;;;;;;11.50;9.50;;;;;9.35;100.00;101103.84;5035807;28;45449;-79
2023/02/23 02:41:57;;;;;;;;;10.50;9.00;;;;;9.35;100.00;101103.00;5036146;28;45235;-78
2023/02/23 02:44:30;;;;;;;;;10.50;8.50;;;;;9.30;100.00;101092.69;5034517;28;46873;-78
2023/02/23 02:47:00;;;;;;;;;12.00;9.50;;;;;9.37;100.00;101098.63;5032929;28;45297;-78
2023/02/23 02:49:41;;;;;;;;;9.50;8.75;;;;;9.39;100.00;101097.69;4998141;28;45553;-78
2023/02/23 02:52:18;;;;;;;;;13.00;10.00;;;;;9.42;100.00;101102.00;4999084;28;45258;-78
2023/02/23 02:54:48;;;;;;;;;16.75;9.00;;;;;9.37;100.00;101101.22;4998755;28;46465;-78
2023/02/23 02:57:14;;;;;;;;;13.00;7.25;;;;;9.34;100.00;101094.31;4997832;28;45738;-78
2023/02/23 04:17:38;;;;;;;;;9.50;9.00;;;;;9.39;100.00;101102.06;5033243;28;45291;-77
2023/02/23 04:20:05;;;;;;;;;8.25;6.50;;;;;9.41;100.00;101106.31;5017426;28;48552;-77
2023/02/23 04:22:31;;;;;;;;;9.75;7.00;;;;;9.37;100.00;101112.47;5018062;28;45421;-78
2023/02/23 04:24:56;;;;;;;;;9.50;6.25;;;;;9.34;100.00;101104.72;5017934;28;54483;-78
2023/02/23 04:27:22;;;;;;;;;9.00;8.50;;;;;9.39;100.00;101113.28;5016326;28;73812;-78
2023/02/23 04:29:47;;;;;;;;;14.50;10.00;;;;;9.42;100.00;101117.59;5017668;28;56134;-78
2023/02/23 04:32:15;;;;;;;;;20.50;11.00;;;;;9.43;100.00;101114.94;5018653;28;45502;-78
2023/02/23 04:34:41;;;;;;;;;13.00;10.00;;;;;9.44;100.00;101116.69;5018115;28;45612;-78
2023/02/23 04:37:06;;;;;;;;;13.25;13.00;;;;;9.45;100.00;101118.41;5017432;28;45507;-78
2023/02/23 04:39:31;;;;;;;;;13.50;11.75;;;;;9.43;100.00;101111.50;5017688;28;66199;-79
2023/02/23 04:41:57;;;;;;;;;10.50;9.00;;;;;9.41;100.00;101114.13;5016534;28;67664;-79
2023/02/23 04:44:22;;;;;;;;;11.75;9.75;;;;;9.42;100.00;101118.44;5017820;28;69163;-78
2023/02/23 04:46:47;;;;;;;;;9.00;6.50;;;;;9.46;100.00;101119.25;5018369;28;45493;-78
2023/02/23 04:49:13;;;;;;;;;16.25;8.50;;;;;9.49;100.00;101116.59;5018968;28;63773;-78
2023/02/23 04:51:38;;;;;;;;;9.50;5.75;;;;;9.54;100.00;101119.09;5035446;28;65282;-78
2023/02/23 04:54:04;;;;;;;;;9.75;9.00;;;;;9.58;100.00;101124.19;5037943;28;46236;-78
2023/02/23 04:56:30;;;;;;;;;21.00;11.25;;;;;9.57;100.00;101126.84;5037882;28;45366;-78
2023/02/23 04:58:55;;;;;;;;;17.50;9.25;;;;;9.47;100.00;101132.22;5036694;28;45385;-78
2023/02/23 05:01:21;;;;;;;;;14.25;10.75;;;;;9.49;100.00;101135.66;5038082;28;45536;-78
2023/02/23 05:03:48;;;;;;;;;17.00;13.75;;;;;9.50;100.00;101141.69;5037547;28;46355;-78
2023/02/23 05:06:17;;;;;;;;;16.00;9.75;;;;;9.49;100.00;101147.78;5036062;28;46260;-78
2023/02/23 05:08:42;;;;;;;;;9.00;8.00;;;;;9.46;100.00;101146.09;5036914;28;45350;-78
2023/02/23 05:11:07;;;;;;;;;17.00;14.00;;;;;9.37;100.00;101143.66;5052763;28;45299;-78
2023/02/23 05:13:33;;;;;;;;;15.50;9.50;;;;;9.36;100.00;101147.16;5037511;28;45361;-78
2023/02/23 05:15:59;;;;;;;;;13.25;9.25;;;;;9.35;100.00;101149.75;5036965;28;45393;-78
2023/02/23 05:18:25;;;;;;;;;10.75;9.50;;;;;9.37;100.00;101148.84;5037868;28;45439;-78
2023/02/23 05:20:51;;;;;;;;;16.75;10.25;;;;;9.38;100.00;101149.69;5036849;28;45523;-78
2023/02/23 05:23:16;;;;;;;;;14.00;10.75;;;;;9.40;100.00;101151.41;5037041;28;46165;-78
2023/02/23 05:25:41;;;;;;;;;21.50;10.00;;;;;9.42;100.00;101153.97;5036215;28;66508;-78
2023/02/23 05:28:07;;;;;;;;;24.75;13.00;;;;;9.40;100.00;101154.00;5036457;28;63695;-78
2023/02/23 05:30:32;;;;;;;;;14.00;12.25;;;;;9.42;100.00;101149.63;5037268;28;48678;-78
2023/02/23 05:32:58;;;;;;;;;16.00;11.25;;;;;9.40;100.00;101156.59;5035107;28;71671;-78
2023/02/23 05:35:24;;;;;;;;;15.00;11.00;;;;;9.37;100.00;101163.59;5036644;28;45511;-78
2023/02/23 05:37:49;;;;;;;;;19.50;14.00;;;;;9.38;100.00;101163.56;5037452;28;45352;-78
2023/02/23 05:40:15;;;;;;;;;17.00;9.50;;;;;9.33;100.00;101154.97;5036006;28;64116;-78
2023/02/23 05:42:40;;;;;;;;;15.25;13.25;;;;;9.33;100.00;101167.97;5036963;28;45471;-78
2023/02/23 05:45:06;;;;;;;;;16.75;11.75;;;;;9.29;100.00;101161.97;5037002;28;45243;-78
2023/02/23 05:47:37;;;;;;;;;21.50;14.00;;;;;9.25;100.00;101157.72;5036782;28;45448;-78
2023/02/23 05:50:07;;;;;;;;;20.75;13.00;;;;;9.25;100.00;101165.50;5036233;28;45483;-77
2023/02/23 05:52:36;;;;;;;;;17.50;13.25;;;;;9.29;100.00;101166.31;5035358;28;46525;-78
2023/02/23 05:55:01;;;;;;;;;17.75;12.50;;;;;9.30;100.00;101161.09;5035844;28;45913;-78
2023/02/23 05:57:27;;;;;;;;;13.00;10.00;;;;;9.30;100.00;101155.03;5036557;28;61657;-78
2023/02/23 05:59:52;;;;;;;;;25.00;14.50;;;;;9.32;100.00;101150.66;5036482;28;45458;-78
2023/02/23 06:02:18;;;;;;;;;24.00;14.00;;;;;9.32;100.00;101150.66;5035936;28;64698;-78
2023/02/23 06:04:43;;;;;;;;;16.00;12.75;;;;;9.32;100.00;101161.03;5034364;28;61908;-78
2023/02/23 06:07:09;;;;;;;;;18.75;14.75;;;;;9.36;100.00;101159.25;5037210;28;45421;-78
2023/02/23 06:09:35;;;;;;;;;17.25;11.25;;;;;9.36;100.00;101164.44;5036306;28;55603;-78
2023/02/23 06:12:00;;;;;;;;;18.50;11.25;;;;;9.34;100.00;101159.28;5036353;28;46651;-78
2023/02/23 06:14:26;;;;;;;;;10.00;8.00;;;;;9.33;100.00;101165.38;5036347;28;66425;-78
2023/02/23 06:16:51;;;;;;;;;16.50;9.25;;;;;9.27;100.00;101155.09;5036810;28;45479;-78
2023/02/23 06:19:16;;;;;;;;;19.25;11.00;;;;;9.29;100.00;101167.16;5035072;28;45531;-78
2023/02/23 06:21:42;;;;;;;;;17.25;11.00;;;;;9.26;100.00;101166.34;5035218;28;49954;-78
2023/02/23 06:24:07;;;;;;;;;19.25;14.75;;;;;9.25;100.00;101162.06;5035754;28;69782;-78
2023/02/23 06:26:34;;;;;;;;;18.00;14.00;;;;;9.22;100.00;101151.72;5036215;28;45369;-78
2023/02/23 06:28:59;;;;;;;;;23.75;13.25;;;;;9.20;100.00;101154.31;5034957;28;45598;-78
2023/02/23 06:31:24;;;;;;;;;15.00;11.25;;;;;9.23;100.00;101151.69;5034920;28;46457;-78
2023/02/23 06:33:50;;;;;;;;;13.00;10.50;;;;;9.25;100.00;101162.91;5036443;28;53810;-78
2023/02/23 06:36:15;;;;;;;;;18.25;13.50;;;;;9.29;100.00;101164.56;5035987;28;61050;-78
2023/02/23 06:38:41;;;;;;;;;13.00;12.75;;;;;9.26;100.00;101150.78;5036088;28;45308;-78
2023/02/23 06:41:08;;;;;;;;;22.00;13.00;;;;;9.25;100.00;101157.72;5035599;28;59781;-78
2023/02/23 06:43:33;;;;;;;;;19.25;12.75;;;;;9.30;100.00;101163.69;5036178;28;45351;-78
2023/02/23 06:45:58;;;;;;;;;19.25;13.75;;;;;9.32;100.00;101155.84;5035502;28;66857;-78
2023/02/23 06:48:24;;;;;;;;;16.25;12.00;;;;;9.33;100.00;101170.56;5067008;28;68292;-78
2023/02/23 06:50:49;;;;;;;;;14.50;12.50;;;;;9.29;100.00;101164.56;5034215;28;55778;-78
2023/02/23 06:53:14;;;;;;;;;19.00;13.75;;;;;9.25;100.00;101175.03;5035330;28;45377;-78
2023/02/23 06:55:40;;;;;;;;;16.50;15.50;;;;;9.17;100.00;101169.94;5017752;28;68455;-78
2023/02/23 06:58:06;;;;;;;;;21.25;16.50;;;;;9.12;100.00;101182.19;5036127;28;45420;-78
2023/02/23 07:00:32;;;;;;;;;19.75;14.75;;;;;9.11;100.00;101181.28;5036250;28;47181;-77
2023/02/23 07:02:58;;;;;;;;;20.75;14.00;;;;;9.15;100.00;101182.09;5067993;28;45276;-78
2023/02/23 07:05:24;;;;;;;;;12.50;9.00;;;;;9.20;100.00;101185.50;5036153;28;45238;-78
2023/02/23 07:07:50;;;;;;;;;22.00;14.00;;;;;9.24;100.00;101183.72;5035868;28;45425;-78
2023/02/23 07:10:16;;;;;;;;;21.50;12.25;;;;;9.28;100.00;101187.97;5035353;28;46561;-78
2023/02/23 07:12:42;;;;;;;;;17.50;12.50;;;;;9.30;100.00;101189.66;5035936;28;45416;-78
2023/02/23 07:15:08;;;;;;;;;22.25;16.25;;;;;9.33;100.00;101190.50;5036379;28;45363;-78
2023/02/23 07:17:34;;;;;;;;;12.00;10.50;;;;;9.34;100.00;101194.78;5035554;28;45420;-78
2023/02/23 07:19:59;;;;;;;;;20.50;13.75;;;;;9.36;100.00;101195.63;5034206;28;45371;-77
2023/02/23 07:22:28;;;;;;;;;20.25;14.50;;;;;9.36;100.00;101195.63;5035755;28;45448;-78
2023/02/23 07:24:53;;;;;;;;;17.25;14.00;;;;;9.40;100.00;101200.75;5035678;28;45452;-78
2023/02/23 07:27:19;;;;;;;;;19.50;15.75;;;;;9.43;100.00;101207.63;5036210;28;45364;-78
2023/02/23 07:29:44;;;;;;;;;18.50;14.00;;;;;9.38;100.00;101215.53;5035452;28;46304;-78
2023/02/23 07:32:09;;;;;;;;;24.75;17.75;;;;;9.33;100.00;101213.88;5034485;28;64745;-78
2023/02/23 07:34:36;;;;;;;;;25.50;16.25;;;;;9.32;100.00;101215.59;5033830;28;65653;-78
2023/02/23 07:37:01;;;;;;;;;23.00;15.25;;;;;9.37;100.00;101225.94;5036583;28;45234;-77
2023/02/23 07:39:26;;;;;;;;;19.25;14.00;;;;;9.37;100.00;101231.13;5035572;28;46423;-78
2023/02/23 07:41:52;;;;;;;;;24.25;14.00;;;;;9.38;100.00;101230.22;5034355;28;45575;-76
2023/02/23 07:44:18;;;;;;;;;25.25;13.50;;;;;9.41;100.00;101227.59;5034154;28;57362;-81
2023/02/23 07:46:45;;;;;;;;;18.25;13.25;;;;;9.52;100.00;101230.88;5033952;28;45349;-82
2023/02/23 07:49:10;;;;;;;;;19.25;13.25;;;;;9.54;100.00;101226.50;5032522;28;46390;-81
2023/02/23 07:51:37;;;;;;;;;18.25;16.50;;;;;9.54;100.00;101228.25;5033311;28;45558;-78
2023/02/23 07:54:04;;;;;;;;;29.75;20.00;;;;;9.50;100.00;101233.50;5034331;28;45428;-79
2023/02/23 07:56:29;;;;;;;;;26.75;14.50;;;;;9.52;100.00;101230.88;5036772;28;45383;-80
2023/02/23 07:58:54;;;;;;;;;25.25;13.75;;;;;9.55;100.00;101228.22;5020004;28;47361;-80
2023/02/23 08:01:20;;;;;;;;;18.25;14.00;;;;;9.57;100.00;101241.22;5037059;28;65141;-80
2023/02/23 08:03:48;;;;;;;;;22.00;14.75;;;;;9.61;100.00;101248.91;5057085;28;61867;-82
2023/02/23 08:06:15;;;;;;;;;22.50;13.50;;;;;9.66;100.00;101244.50;5037258;28;45713;-81
2023/02/23 08:08:40;;;;;;;;;20.25;15.50;;;;;9.65;100.00;101231.53;5035021;28;47567;-81
2023/02/23 08:11:05;;;;;;;;;22.25;16.75;;;;;9.71;100.00;101233.16;5033925;28;51624;-81
2023/02/23 08:13:31;;;;;;;;;22.25;15.25;;;;;9.74;100.00;101233.97;5040524;28;64830;-81
2023/02/23 08:15:57;;;;;;;;;20.00;15.00;;;;;9.84;100.00;101240.72;5046565;28;45602;-81
2023/02/23 08:18:23;;;;;;;;;27.25;18.00;;;;;9.83;100.00;101232.97;5048849;28;46279;-81
2023/02/23 08:20:48;;;;;;;;;27.75;19.75;;;;;9.88;100.00;101238.94;5073009;27;45416;-80
2023/02/23 08:23:15;;;;;;;;;25.50;18.50;;;;;9.86;100.00;101240.69;5047428;28;45546;-80
2023/02/23 08:25:41;;;;;;;;;25.75;19.50;;;;;9.78;100.00;101232.16;5056053;28;45470;-80
2023/02/23 08:28:06;;;;;;;;;24.25;17.00;;;;;9.78;100.00;101235.63;5066088;27;45586;-81
2023/02/23 08:30:32;;;;;;;;;21.75;14.50;;;;;9.80;100.00;101228.66;5027430;28;45325;-80
2023/02/23 08:32:58;;;;;;;;;28.50;22.00;;;;;9.83;100.00;101239.00;5051339;28;45555;-81
2023/02/23 08:35:24;;;;;;;;;27.50;18.25;;;;;9.83;100.00;101230.34;5030899;28;66237;-81
2023/02/23 08:37:49;;;;;;;;;26.00;21.25;;;;;9.96;100.00;101238.78;5044116;28;45769;-80
2023/02/23 08:40:17;;;;;;;;;25.25;15.00;;;;;10.04;100.00;101242.94;5032533;28;45286;-80
2023/02/23 08:42:43;;;;;;;;;23.25;14.25;;;;;10.07;100.00;101237.69;5045439;28;45379;-81
2023/02/23 08:45:10;;;;;;;;;21.25;14.00;;;;;10.13;100.00;101246.28;5028240;28;45431;-80
2023/02/23 08:47:35;;;;;;;;;22.75;17.75;;;;;10.10;100.00;101247.19;5035466;28;47106;-80
2023/02/23 08:50:01;;;;;;;;;26.00;16.50;;;;;10.05;100.00;101241.22;5051095;28;45500;-81
2023/02/23 08:52:26;;;;;;;;;26.25;15.50;;;;;10.05;100.00;101238.63;5036415;28;45497;-80
2023/02/23 08:54:51;;;;;;;;;14.50;12.50;;;;;10.09;100.00;101248.09;5042603;28;45520;-80
2023/02/23 08:57:18;;;;;;;;;19.50;16.75;;;;;10.18;100.00;101260.91;5037744;28;70588;-80
2023/02/23 08:59:43;;;;;;;;;20.50;14.50;;;;;10.23;100.00;101258.22;5085866;27;45485;-80
2023/02/23 09:02:12;;;;;;;;;23.25;14.00;;;;;10.34;100.00;101260.66;5046000;28;45438;-80
2023/02/23 09:04:40;;;;;;;;;31.25;18.25;;;;;10.40;100.00;101263.13;5036191;28;45522;-80
2023/02/23 09:07:07;;;;;;;;;22.25;14.25;;;;;10.42;100.00;101259.63;5040756;28;46303;-80
2023/02/23 09:09:33;;;;;;;;;21.25;15.00;;;;;10.40;100.00;101252.72;5044438;28;45873;-80
2023/02/23 09:11:58;;;;;;;;;22.00;14.00;;;;;10.53;100.00;101263.72;5036695;28;45774;-80
2023/02/23 09:14:24;;;;;;;;;20.25;17.75;;;;;10.59;100.00;101255.81;5046822;28;45422;-80
2023/02/23 09:16:49;;;;;;;;;24.50;15.50;;;;;10.57;100.00;101263.66;5045409;28;50211;-80
2023/02/23 09:19:14;;;;;;;;;20.00;12.75;;;;;10.57;100.00;101265.41;5031766;28;53466;-80
2023/02/23 09:21:40;;;;;;;;;25.50;18.25;;;;;10.53;100.00;101272.41;5047072;28;45390;-80
2023/02/23 09:24:05;;;;;;;;;18.50;15.00;;;;;10.57;100.00;101278.41;5054296;28;67043;-80
2023/02/23 09:26:32;;;;;;;;;19.25;14.50;;;;;10.57;100.00;101276.66;5047194;28;46101;-80
2023/02/23 09:28:59;;;;;;;;;23.25;15.00;;;;;10.57;100.00;101279.28;5042018;28;45459;-80
2023/02/23 09:31:24;;;;;;;;;19.75;16.25;;;;;10.60;100.00;101278.34;5050748;28;45369;-80
2023/02/23 09:33:50;;;;;;;;;19.75;14.00;;;;;10.52;100.00;101280.25;5036941;28;45432;-80
2023/02/23 09:36:18;;;;;;;;;19.50;14.50;;;;;10.46;100.00;101281.22;5044343;28;47223;-80
2023/02/23 09:38:45;;;;;;;;;19.25;13.00;;;;;10.45;100.00;101284.72;5053921;28;45626;-80
2023/02/23 09:41:45;;;;;;;;;17.75;11.75;;;;;10.45;100.00;101284.72;5040097;28;45427;-80
2023/02/23 09:44:54;;;;;;;;;18.00;11.00;;;;;10.43;100.00;101286.50;5023767;28;45708;-79
2023/02/23 09:47:39;;;;;;;;;16.25;11.25;;;;;10.39;100.00;101287.44;4989155;28;45493;-80
2023/02/23 09:50:14;;;;;;;;;20.25;14.50;;;;;10.38;100.00;101297.00;5002290;28;45735;-80
2023/02/23 09:52:41;;;;;;;;;20.25;15.25;;;;;10.39;100.00;101298.69;4990810;28;45402;-80
2023/02/23 09:55:10;;;;;;;;;20.25;14.75;;;;;10.42;100.00;101297.81;4983606;28;45637;-80
2023/02/23 09:57:38;;;;;;;;;19.25;13.75;;;;;10.50;100.00;101297.66;5000499;28;47611;-80
2023/02/23 10:00:12;;;;;;;;;14.25;13.75;;;;;10.49;100.00;101275.94;4976051;28;45459;-80
2023/02/23 10:03:03;;;;;;;;;18.00;9.25;;;;;10.64;100.00;101291.28;4979088;28;45505;-80
2023/02/23 10:05:32;;;;;;;;;18.25;13.00;;;;;10.59;100.00;101290.50;4992870;28;45734;-79
2023/02/23 10:08:06;;;;;;;;;12.50;12.50;;;;;10.60;100.00;101286.16;4974343;28;46451;-80
2023/02/23 10:10:38;;;;;;;;;23.50;15.00;;;;;10.59;100.00;101281.84;4977986;28;46222;-79
2023/02/23 10:13:12;;;;;;;;;16.25;13.00;;;;;10.61;100.00;101285.28;4991817;28;45489;-80
2023/02/23 10:15:48;;;;;;;;;17.75;14.00;;;;;10.69;100.00;101285.97;5002378;28;45706;-80
2023/02/23 10:18:13;;;;;;;;;18.00;13.75;;;;;10.74;100.00;101288.50;4989378;28;45647;-79
2023/02/23 10:20:49;;;;;;;;;15.00;13.67;;;;;10.77;100.00;101289.28;4986061;28;45652;-78
2023/02/23 10:23:18;;;;;;;;;15.25;14.00;;;;;10.76;100.00;101291.91;5035136;28;45405;-80
2023/02/23 10:25:46;;;;;;;;;9.50;9.25;;;;;10.76;100.00;101286.72;5035863;28;45485;-79
2023/02/23 10:28:17;;;;;;;;;19.00;13.75;;;;;10.72;100.00;101288.50;5042941;28;46396;-79
2023/02/23 10:30:44;;;;;;;;;16.75;13.00;;;;;10.86;100.00;101285.59;5044278;28;45615;-79
2023/02/23 10:33:15;;;;;;;;;22.25;15.00;;;;;10.98;100.00;101287.09;5049048;28;45552;-79
2023/02/23 10:35:40;;;;;;;;;17.50;12.50;;;;;11.04;100.00;101276.53;5031780;28;45469;-80
2023/02/23 10:38:15;;;;;;;;;21.00;14.50;;;;;11.09;100.00;101281.63;5049915;28;67523;-80
2023/02/23 10:40:40;;;;;;;;;15.50;12.25;;;;;11.16;100.00;101272.78;5041568;28;45680;-80
2023/02/23 10:43:06;;;;;;;;;23.25;12.50;;;;;11.31;100.00;101284.63;5045137;28;45624;-81
2023/02/23 10:45:37;;;;;;;;;14.25;11.00;;;;;11.35;100.00;101266.28;5050075;28;45463;-79
2023/02/23 10:48:16;;;;;;;;;21.25;15.50;;;;;11.47;100.00;101275.53;5020179;28;45732;-80
2023/02/23 10:50:44;;;;;;;;;16.75;11.25;;;;;11.43;100.00;101282.56;5049379;28;45912;-80
2023/02/23 10:53:15;;;;;;;;;14.75;12.50;;;;;11.45;100.00;101290.38;5039942;28;45535;-78
2023/02/23 10:55:40;;;;;;;;;17.00;14.00;;;;;11.40;100.00;101285.28;5049369;28;45783;-80
2023/02/23 10:58:17;;;;;;;;;20.75;14.50;;;;;11.46;100.00;101286.00;5033780;28;45493;-79
2023/02/23 11:00:58;;;;;;;;;24.75;15.75;;;;;11.40;100.00;101274.84;5041321;28;45970;-79
2023/02/23 11:03:35;;;;;;;;;15.25;12.50;;;;;11.55;100.00;101288.38;5024702;28;45397;-78
2023/02/23 11:06:01;;;;;;;;;23.50;16.50;;;;;11.58;100.00;101283.97;5019652;28;45556;-78
2023/02/23 11:08:30;;;;;;;;;20.25;14.75;;;;;11.60;100.00;101276.97;5034231;28;54840;-79
2023/02/23 11:11:14;;;;;;;;;23.75;14.50;;;;;11.65;100.00;101284.69;5034236;28;45369;-78
2023/02/23 11:13:45;;;;;;;;;24.25;15.00;;;;;11.78;100.00;101286.09;5045038;28;45506;-78
2023/02/23 11:16:13;;;;;;;;;19.25;15.50;;;;;12.00;100.00;101289.03;5033860;28;45810;-78
2023/02/23 11:19:08;;;;;;;;;25.00;17.25;;;;;12.18;100.00;101289.44;5031227;28;45564;-79
2023/02/23 11:21:37;;;;;;;;;24.25;14.75;;;;;12.23;100.00;101273.66;5028637;28;45613;-78
2023/02/23 11:24:33;;;;;;;;;14.75;10.50;;;;;12.37;100.00;101280.22;5026165;28;45837;-78
2023/02/23 11:27:02;;;;;;;;;19.25;7.50;;;;;12.46;100.00;101262.56;5039496;28;45856;-77
2023/02/23 11:29:34;;;;;;;;;10.25;9.00;;;;;12.55;100.00;101268.38;5033251;28;45763;-78
2023/02/23 11:32:07;;;;;;;;;12.75;8.00;;;;;12.57;100.00;101282.28;5023716;28;45374;-79
2023/02/23 11:34:34;;;;;;;;;14.75;10.25;;;;;12.62;100.00;101274.28;5045007;28;45472;-77
2023/02/23 11:37:18;;;;;;;;;14.75;9.50;;;;;12.63;100.00;101280.38;5044501;28;45333;-79
2023/02/23 11:39:58;;;;;;;;;16.25;11.00;;;;;12.53;100.00;101261.50;5046620;28;46225;-78
2023/02/23 11:42:26;;;;;;;;;11.50;9.75;;;;;12.59;100.00;101269.16;5034372;28;47098;-79
2023/02/23 11:45:06;;;;;;;;;16.50;8.00;;;;;12.58;100.00;101273.53;5046715;28;45285;-77
2023/02/23 11:47:34;;;;;;;;;16.00;8.00;;;;;12.51;100.00;101258.94;5033808;28;45401;-78
2023/02/23 11:50:00;;;;;;;;;14.75;11.75;;;;;12.54;100.00;101268.44;5026559;28;46748;-78
2023/02/23 11:52:27;;;;;;;;;16.25;10.00;;;;;12.51;100.00;101258.06;5025072;28;48632;-78
2023/02/23 11:54:56;;;;;;;;;17.50;9.00;;;;;12.51;100.00;101271.13;5035510;28;45428;-78
2023/02/23 11:57:27;;;;;;;;;14.50;10.75;;;;;12.33;100.00;101257.72;5043433;28;45389;-78
2023/02/23 11:59:57;;;;;;;;;11.25;10.00;;;;;12.27;100.00;101263.09;5025262;28;48320;-80
2023/02/23 12:02:28;;;;;;;;;14.50;10.00;;;;;12.12;100.00;101259.13;5033465;28;45841;-78
2023/02/23 12:05:06;;;;;;;;;10.75;8.75;;;;;12.09;100.00;101254.03;5043106;28;45337;-79
2023/02/23 12:07:37;;;;;;;;;11.00;8.00;;;;;12.09;100.00;101255.75;5039232;28;45509;-78
2023/02/23 12:10:05;;;;;;;;;11.00;8.25;;;;;12.07;100.00;101255.81;5025424;28;45655;-76
2023/02/23 12:12:39;;;;;;;;;14.00;10.00;;;;;12.02;100.00;101236.81;5049267;28;45382;-77
2023/02/23 12:15:14;;;;;;;;;16.50;10.25;;;;;12.07;100.00;101245.38;5043421;28;45427;-77
2023/02/23 12:17:48;;;;;;;;;12.00;9.25;;;;;12.09;100.00;101233.16;5058740;27;45371;-76
2023/02/23 12:20:28;;;;;;;;;18.00;11.50;;;;;12.19;100.00;101249.41;5049979;28;46664;-77
2023/02/23 12:23:00;;;;;;;;;12.25;10.75;;;;;12.20;100.00;101248.47;5039600;28;45700;-77
2023/02/23 12:25:27;;;;;;;;;12.75;9.75;;;;;12.16;100.00;101249.47;5022581;28;45363;-78
2023/02/23 12:27:57;;;;;;;;;14.00;10.25;;;;;12.10;100.00;101237.44;5032936;28;45371;-77
2023/02/23 12:30:40;;;;;;;;;14.25;10.75;;;;;12.27;100.00;101239.59;5038600;28;46598;-77
2023/02/23 12:33:32;;;;;;;;;21.50;12.25;;;;;12.37;100.00;101242.81;5041094;28;45578;-80